KIML

Imperial Municipal Airport

Imperial, Nebraska, USA
METAR KIML 230953Z AUTO 00000KT 10SM BKN080 M07/M09 A3011 RMK AO2 SLP238 T10721089
Observed Flight Rules
Feb-23 @ 09:53 UTC (35 minutes ago) Visual Flight Rules
Wind Visibility Clouds
Calm 10 miles
  • Broken at 8,000' AGL
Temperatures Readings
Current -7°C / 19°F
Dewpoint -9°C / 16°F
Humidity 86%
Altimeter 30.11" Hg
Pressure 1023.8 hPa
Elevation 998
METAR KIML 230953Z AUTO 00000KT 10SM BKN080 M07/M09 A3011 RMK AO2 SLP238 T10721089
Observed Flight Rules
Feb-23 @ 09:53 UTC
(35 minutes ago)
VFR
Wind Visibility
Calm 10 miles
Clouds
  • Broken at 8,000' AGL
Temperature Dewpoint
-7°C / 19°F -9°C / 16°F
Humidity Altimeter Pressure
86% 30.11" Hg 1023.8 hPa